sensor_id;sensor_type;location;lat;lon;timestamp;P1;durP1;ratioP1;P2;durP2;ratioP2
36931;SDS011;22847;42.654;23.370;2023-05-02T00:02:02;6.20;;;3.80;;
36931;SDS011;22847;42.654;23.370;2023-05-02T00:04:28;5.75;;;4.32;;
36931;SDS011;22847;42.654;23.370;2023-05-02T00:06:53;5.47;;;3.47;;
36931;SDS011;22847;42.654;23.370;2023-05-02T00:09:19;8.02;;;3.45;;
36931;SDS011;22847;42.654;23.370;2023-05-02T00:11:45;6.05;;;3.95;;
36931;SDS011;22847;42.654;23.370;2023-05-02T00:14:10;6.20;;;4.63;;
36931;SDS011;22847;42.654;23.370;2023-05-02T00:16:36;5.78;;;3.92;;
36931;SDS011;22847;42.654;23.370;2023-05-02T00:19:01;5.32;;;3.88;;
36931;SDS011;22847;42.654;23.370;2023-05-02T00:21:27;6.60;;;4.18;;
36931;SDS011;22847;42.654;23.370;2023-05-02T00:23:57;6.25;;;4.65;;
36931;SDS011;22847;42.654;23.370;2023-05-02T00:26:23;5.50;;;3.78;;
36931;SDS011;22847;42.654;23.370;2023-05-02T00:28:48;4.78;;;3.97;;
36931;SDS011;22847;42.654;23.370;2023-05-02T00:31:14;5.00;;;4.13;;
36931;SDS011;22847;42.654;23.370;2023-05-02T00:33:40;5.90;;;4.10;;
36931;SDS011;22847;42.654;23.370;2023-05-02T00:36:15;5.50;;;4.00;;
36931;SDS011;22847;42.654;23.370;2023-05-02T00:38:42;5.13;;;4.15;;
36931;SDS011;22847;42.654;23.370;2023-05-02T00:41:08;5.03;;;4.05;;
36931;SDS011;22847;42.654;23.370;2023-05-02T00:43:33;8.60;;;4.70;;
36931;SDS011;22847;42.654;23.370;2023-05-02T00:45:59;6.18;;;4.50;;
36931;SDS011;22847;42.654;23.370;2023-05-02T00:48:24;5.63;;;4.13;;
36931;SDS011;22847;42.654;23.370;2023-05-02T00:50:50;5.95;;;4.20;;
36931;SDS011;22847;42.654;23.370;2023-05-02T00:53:16;5.95;;;4.13;;
36931;SDS011;22847;42.654;23.370;2023-05-02T00:55:41;5.95;;;3.72;;
36931;SDS011;22847;42.654;23.370;2023-05-02T00:58:08;9.57;;;4.68;;
36931;SDS011;22847;42.654;23.370;2023-05-02T01:09:41;4.70;;;4.15;;
36931;SDS011;22847;42.654;23.370;2023-05-02T01:12:15;6.22;;;4.38;;
36931;SDS011;22847;42.654;23.370;2023-05-02T01:14:51;5.95;;;4.88;;
36931;SDS011;22847;42.654;23.370;2023-05-02T01:17:19;5.53;;;4.78;;
36931;SDS011;22847;42.654;23.370;2023-05-02T01:19:51;5.28;;;4.60;;
36931;SDS011;22847;42.654;23.370;2023-05-02T01:22:27;5.78;;;4.47;;
36931;SDS011;22847;42.654;23.370;2023-05-02T01:30:20;6.72;;;4.32;;
36931;SDS011;22847;42.654;23.370;2023-05-02T01:32:47;9.73;;;4.70;;
36931;SDS011;22847;42.654;23.370;2023-05-02T01:35:17;5.47;;;4.63;;
36931;SDS011;22847;42.654;23.370;2023-05-02T01:37:44;6.25;;;4.85;;
36931;SDS011;22847;42.654;23.370;2023-05-02T01:40:10;7.90;;;4.93;;
36931;SDS011;22847;42.654;23.370;2023-05-02T01:42:41;5.75;;;4.53;;
36931;SDS011;22847;42.654;23.370;2023-05-02T01:45:09;7.18;;;4.53;;
36931;SDS011;22847;42.654;23.370;2023-05-02T01:47:36;6.38;;;4.85;;
36931;SDS011;22847;42.654;23.370;2023-05-02T01:50:04;6.85;;;4.47;;
36931;SDS011;22847;42.654;23.370;2023-05-02T01:52:32;6.68;;;4.60;;
36931;SDS011;22847;42.654;23.370;2023-05-02T01:54:58;5.18;;;4.68;;
36931;SDS011;22847;42.654;23.370;2023-05-02T01:57:25;6.10;;;5.07;;
36931;SDS011;22847;42.654;23.370;2023-05-02T01:59:51;6.28;;;4.82;;
36931;SDS011;22847;42.654;23.370;2023-05-02T02:02:20;8.07;;;5.40;;
36931;SDS011;22847;42.654;23.370;2023-05-02T02:04:51;7.13;;;5.03;;
36931;SDS011;22847;42.654;23.370;2023-05-02T02:07:18;5.93;;;4.50;;
36931;SDS011;22847;42.654;23.370;2023-05-02T02:09:44;8.77;;;5.18;;
36931;SDS011;22847;42.654;23.370;2023-05-02T02:12:10;7.40;;;4.88;;
36931;SDS011;22847;42.654;23.370;2023-05-02T02:14:41;7.93;;;4.75;;
36931;SDS011;22847;42.654;23.370;2023-05-02T02:17:35;9.93;;;4.75;;
36931;SDS011;22847;42.654;23.370;2023-05-02T02:20:04;6.20;;;5.30;;
36931;SDS011;22847;42.654;23.370;2023-05-02T02:22:33;8.25;;;5.47;;
36931;SDS011;22847;42.654;23.370;2023-05-02T02:25:02;9.45;;;5.43;;
36931;SDS011;22847;42.654;23.370;2023-05-02T02:27:30;7.15;;;5.20;;
36931;SDS011;22847;42.654;23.370;2023-05-02T02:29:55;6.90;;;5.07;;
36931;SDS011;22847;42.654;23.370;2023-05-02T02:32:21;10.27;;;5.78;;
36931;SDS011;22847;42.654;23.370;2023-05-02T02:34:47;7.38;;;5.40;;
36931;SDS011;22847;42.654;23.370;2023-05-02T02:37:19;9.70;;;5.57;;
36931;SDS011;22847;42.654;23.370;2023-05-02T02:50:26;8.87;;;4.97;;
36931;SDS011;22847;42.654;23.370;2023-05-02T02:53:07;8.75;;;5.07;;
36931;SDS011;22847;42.654;23.370;2023-05-02T02:55:49;7.40;;;5.53;;
36931;SDS011;22847;42.654;23.370;2023-05-02T03:01:07;8.05;;;5.95;;
36931;SDS011;22847;42.654;23.370;2023-05-02T03:03:38;9.38;;;5.90;;
36931;SDS011;22847;42.654;23.370;2023-05-02T03:06:06;8.70;;;5.50;;
36931;SDS011;22847;42.654;23.370;2023-05-02T03:08:41;8.05;;;5.72;;
36931;SDS011;22847;42.654;23.370;2023-05-02T03:11:08;10.02;;;5.38;;
36931;SDS011;22847;42.654;23.370;2023-05-02T03:13:34;9.00;;;5.45;;
36931;SDS011;22847;42.654;23.370;2023-05-02T03:18:56;7.03;;;5.50;;
36931;SDS011;22847;42.654;23.370;2023-05-02T03:21:21;8.95;;;5.40;;
36931;SDS011;22847;42.654;23.370;2023-05-02T03:23:47;10.20;;;6.30;;
36931;SDS011;22847;42.654;23.370;2023-05-02T03:26:12;6.07;;;5.18;;
36931;SDS011;22847;42.654;23.370;2023-05-02T03:28:38;10.95;;;5.97;;
36931;SDS011;22847;42.654;23.370;2023-05-02T03:31:03;10.73;;;6.10;;
36931;SDS011;22847;42.654;23.370;2023-05-02T03:33:29;8.23;;;6.18;;
36931;SDS011;22847;42.654;23.370;2023-05-02T03:35:54;6.70;;;5.70;;
36931;SDS011;22847;42.654;23.370;2023-05-02T03:38:20;10.73;;;5.90;;
36931;SDS011;22847;42.654;23.370;2023-05-02T03:40:45;12.20;;;6.53;;
36931;SDS011;22847;42.654;23.370;2023-05-02T03:43:11;7.70;;;6.38;;
36931;SDS011;22847;42.654;23.370;2023-05-02T03:45:36;7.93;;;5.75;;
36931;SDS011;22847;42.654;23.370;2023-05-02T03:48:02;9.10;;;6.10;;
36931;SDS011;22847;42.654;23.370;2023-05-02T03:50:27;8.23;;;5.80;;
36931;SDS011;22847;42.654;23.370;2023-05-02T03:52:53;7.38;;;5.38;;
36931;SDS011;22847;42.654;23.370;2023-05-02T03:55:18;6.30;;;5.28;;
36931;SDS011;22847;42.654;23.370;2023-05-02T03:57:43;8.20;;;5.18;;
36931;SDS011;22847;42.654;23.370;2023-05-02T04:00:09;9.43;;;6.18;;
36931;SDS011;22847;42.654;23.370;2023-05-02T04:02:35;11.48;;;8.23;;
36931;SDS011;22847;42.654;23.370;2023-05-02T04:05:01;14.80;;;5.80;;
36931;SDS011;22847;42.654;23.370;2023-05-02T04:07:26;7.15;;;5.40;;
36931;SDS011;22847;42.654;23.370;2023-05-02T04:09:52;9.45;;;5.85;;
36931;SDS011;22847;42.654;23.370;2023-05-02T04:12:18;8.77;;;6.47;;
36931;SDS011;22847;42.654;23.370;2023-05-02T04:14:44;10.80;;;5.70;;
36931;SDS011;22847;42.654;23.370;2023-05-02T04:17:09;8.68;;;6.32;;
36931;SDS011;22847;42.654;23.370;2023-05-02T04:19:35;7.75;;;4.95;;
36931;SDS011;22847;42.654;23.370;2023-05-02T04:22:01;6.38;;;4.82;;
36931;SDS011;22847;42.654;23.370;2023-05-02T04:24:27;5.38;;;4.82;;
36931;SDS011;22847;42.654;23.370;2023-05-02T04:26:53;16.45;;;5.90;;
36931;SDS011;22847;42.654;23.370;2023-05-02T04:29:18;7.60;;;5.30;;
36931;SDS011;22847;42.654;23.370;2023-05-02T04:31:44;6.80;;;4.90;;
36931;SDS011;22847;42.654;23.370;2023-05-02T04:34:09;7.43;;;5.28;;
36931;SDS011;22847;42.654;23.370;2023-05-02T04:36:35;8.18;;;5.50;;
36931;SDS011;22847;42.654;23.370;2023-05-02T04:39:01;8.82;;;5.60;;
36931;SDS011;22847;42.654;23.370;2023-05-02T04:41:27;9.45;;;5.38;;
36931;SDS011;22847;42.654;23.370;2023-05-02T04:43:53;8.43;;;4.60;;
36931;SDS011;22847;42.654;23.370;2023-05-02T04:46:18;8.38;;;4.68;;
36931;SDS011;22847;42.654;23.370;2023-05-02T04:48:44;10.43;;;5.10;;
36931;SDS011;22847;42.654;23.370;2023-05-02T04:51:09;5.93;;;4.88;;
36931;SDS011;22847;42.654;23.370;2023-05-02T04:53:35;7.38;;;4.63;;
36931;SDS011;22847;42.654;23.370;2023-05-02T04:56:01;7.15;;;5.28;;
36931;SDS011;22847;42.654;23.370;2023-05-02T04:58:27;6.70;;;4.75;;
36931;SDS011;22847;42.654;23.370;2023-05-02T05:00:52;11.05;;;4.70;;
36931;SDS011;22847;42.654;23.370;2023-05-02T05:03:18;6.43;;;4.47;;
36931;SDS011;22847;42.654;23.370;2023-05-02T05:05:44;8.07;;;4.80;;
36931;SDS011;22847;42.654;23.370;2023-05-02T05:08:09;8.88;;;4.60;;
36931;SDS011;22847;42.654;23.370;2023-05-02T05:10:35;7.57;;;4.63;;
36931;SDS011;22847;42.654;23.370;2023-05-02T05:13:00;7.28;;;4.43;;
36931;SDS011;22847;42.654;23.370;2023-05-02T05:15:26;13.63;;;4.03;;
36931;SDS011;22847;42.654;23.370;2023-05-02T05:17:53;6.90;;;4.28;;
36931;SDS011;22847;42.654;23.370;2023-05-02T05:20:18;6.32;;;4.22;;
36931;SDS011;22847;42.654;23.370;2023-05-02T05:22:44;10.30;;;4.95;;
36931;SDS011;22847;42.654;23.370;2023-05-02T05:25:09;8.40;;;4.63;;
36931;SDS011;22847;42.654;23.370;2023-05-02T05:27:35;11.95;;;4.93;;
36931;SDS011;22847;42.654;23.370;2023-05-02T05:30:02;5.85;;;4.40;;
36931;SDS011;22847;42.654;23.370;2023-05-02T05:32:28;6.03;;;4.75;;
36931;SDS011;22847;42.654;23.370;2023-05-02T05:34:54;7.78;;;4.07;;
36931;SDS011;22847;42.654;23.370;2023-05-02T05:37:19;6.20;;;4.40;;
36931;SDS011;22847;42.654;23.370;2023-05-02T05:39:45;8.15;;;4.35;;
36931;SDS011;22847;42.654;23.370;2023-05-02T05:42:11;5.15;;;4.32;;
36931;SDS011;22847;42.654;23.370;2023-05-02T05:44:37;6.75;;;4.47;;
36931;SDS011;22847;42.654;23.370;2023-05-02T05:47:03;6.25;;;4.50;;
36931;SDS011;22847;42.654;23.370;2023-05-02T05:49:28;7.97;;;4.03;;
36931;SDS011;22847;42.654;23.370;2023-05-02T05:51:54;5.20;;;4.32;;
36931;SDS011;22847;42.654;23.370;2023-05-02T05:54:19;8.85;;;4.45;;
36931;SDS011;22847;42.654;23.370;2023-05-02T05:56:45;5.07;;;3.85;;
36931;SDS011;22847;42.654;23.370;2023-05-02T05:59:10;10.10;;;4.40;;
36931;SDS011;22847;42.654;23.370;2023-05-02T06:01:36;6.40;;;4.10;;
36931;SDS011;22847;42.654;23.370;2023-05-02T06:04:02;4.75;;;4.07;;
36931;SDS011;22847;42.654;23.370;2023-05-02T06:06:29;5.65;;;4.28;;
36931;SDS011;22847;42.654;23.370;2023-05-02T06:08:55;6.15;;;4.30;;
36931;SDS011;22847;42.654;23.370;2023-05-02T06:11:21;9.43;;;4.22;;
36931;SDS011;22847;42.654;23.370;2023-05-02T06:13:48;8.95;;;4.03;;
36931;SDS011;22847;42.654;23.370;2023-05-02T06:16:15;7.75;;;4.07;;
36931;SDS011;22847;42.654;23.370;2023-05-02T06:18:42;8.15;;;4.55;;
36931;SDS011;22847;42.654;23.370;2023-05-02T06:21:07;5.55;;;4.18;;
36931;SDS011;22847;42.654;23.370;2023-05-02T06:23:33;6.07;;;3.70;;
36931;SDS011;22847;42.654;23.370;2023-05-02T06:25:59;6.22;;;4.25;;
36931;SDS011;22847;42.654;23.370;2023-05-02T06:28:25;4.45;;;3.83;;
36931;SDS011;22847;42.654;23.370;2023-05-02T06:33:22;5.72;;;3.72;;
36931;SDS011;22847;42.654;23.370;2023-05-02T06:35:50;5.60;;;3.53;;
36931;SDS011;22847;42.654;23.370;2023-05-02T06:38:17;6.40;;;3.80;;
36931;SDS011;22847;42.654;23.370;2023-05-02T06:40:42;5.47;;;3.30;;
36931;SDS011;22847;42.654;23.370;2023-05-02T06:43:09;5.15;;;3.50;;
36931;SDS011;22847;42.654;23.370;2023-05-02T06:45:35;5.15;;;3.22;;
36931;SDS011;22847;42.654;23.370;2023-05-02T06:48:00;4.10;;;3.30;;
36931;SDS011;22847;42.654;23.370;2023-05-02T06:50:26;5.72;;;3.28;;
36931;SDS011;22847;42.654;23.370;2023-05-02T06:52:51;5.30;;;3.15;;
36931;SDS011;22847;42.654;23.370;2023-05-02T06:55:17;4.50;;;3.22;;
36931;SDS011;22847;42.654;23.370;2023-05-02T06:57:42;7.50;;;3.17;;
36931;SDS011;22847;42.654;23.370;2023-05-02T07:00:08;4.70;;;3.33;;
36931;SDS011;22847;42.654;23.370;2023-05-02T07:02:34;11.45;;;3.70;;
36931;SDS011;22847;42.654;23.370;2023-05-02T07:04:59;7.82;;;3.35;;
36931;SDS011;22847;42.654;23.370;2023-05-02T07:07:25;6.55;;;3.00;;
36931;SDS011;22847;42.654;23.370;2023-05-02T07:09:50;8.13;;;3.97;;
36931;SDS011;22847;42.654;23.370;2023-05-02T07:12:16;5.80;;;3.05;;
36931;SDS011;22847;42.654;23.370;2023-05-02T07:14:41;6.22;;;3.75;;
36931;SDS011;22847;42.654;23.370;2023-05-02T07:17:07;4.78;;;3.05;;
36931;SDS011;22847;42.654;23.370;2023-05-02T07:19:33;10.35;;;4.68;;
36931;SDS011;22847;42.654;23.370;2023-05-02T07:21:59;3.85;;;2.63;;
36931;SDS011;22847;42.654;23.370;2023-05-02T07:24:24;4.85;;;2.70;;
36931;SDS011;22847;42.654;23.370;2023-05-02T07:26:50;4.55;;;3.17;;
36931;SDS011;22847;42.654;23.370;2023-05-02T07:29:15;4.20;;;2.80;;
36931;SDS011;22847;42.654;23.370;2023-05-02T07:31:41;6.15;;;3.35;;
36931;SDS011;22847;42.654;23.370;2023-05-02T07:34:06;6.18;;;2.83;;
36931;SDS011;22847;42.654;23.370;2023-05-02T07:36:31;5.40;;;2.90;;
36931;SDS011;22847;42.654;23.370;2023-05-02T07:38:57;4.38;;;3.08;;
36931;SDS011;22847;42.654;23.370;2023-05-02T07:41:22;4.53;;;3.03;;
36931;SDS011;22847;42.654;23.370;2023-05-02T07:43:48;5.97;;;2.83;;
36931;SDS011;22847;42.654;23.370;2023-05-02T07:46:13;3.90;;;2.80;;
36931;SDS011;22847;42.654;23.370;2023-05-02T07:48:38;7.95;;;3.22;;
36931;SDS011;22847;42.654;23.370;2023-05-02T07:51:06;4.63;;;2.85;;
36931;SDS011;22847;42.654;23.370;2023-05-02T07:53:33;4.50;;;2.97;;
36931;SDS011;22847;42.654;23.370;2023-05-02T07:55:58;8.77;;;3.03;;
36931;SDS011;22847;42.654;23.370;2023-05-02T07:58:24;5.13;;;2.70;;
36931;SDS011;22847;42.654;23.370;2023-05-02T08:00:49;3.50;;;2.53;;
36931;SDS011;22847;42.654;23.370;2023-05-02T08:03:15;8.70;;;3.08;;
36931;SDS011;22847;42.654;23.370;2023-05-02T08:05:40;3.95;;;2.53;;
36931;SDS011;22847;42.654;23.370;2023-05-02T08:08:06;6.47;;;3.00;;
36931;SDS011;22847;42.654;23.370;2023-05-02T08:10:31;5.95;;;2.88;;
36931;SDS011;22847;42.654;23.370;2023-05-02T08:12:57;18.83;;;3.22;;
36931;SDS011;22847;42.654;23.370;2023-05-02T08:15:22;5.28;;;2.70;;
36931;SDS011;22847;42.654;23.370;2023-05-02T08:17:48;6.75;;;2.65;;
36931;SDS011;22847;42.654;23.370;2023-05-02T08:20:13;6.25;;;2.80;;
36931;SDS011;22847;42.654;23.370;2023-05-02T08:22:38;5.13;;;2.85;;
36931;SDS011;22847;42.654;23.370;2023-05-02T08:25:04;7.40;;;2.92;;
36931;SDS011;22847;42.654;23.370;2023-05-02T08:27:30;4.00;;;2.47;;
36931;SDS011;22847;42.654;23.370;2023-05-02T08:29:55;6.43;;;2.85;;
36931;SDS011;22847;42.654;23.370;2023-05-02T08:32:21;8.32;;;2.60;;
36931;SDS011;22847;42.654;23.370;2023-05-02T08:34:46;5.43;;;2.75;;
36931;SDS011;22847;42.654;23.370;2023-05-02T08:37:12;2.95;;;2.58;;
36931;SDS011;22847;42.654;23.370;2023-05-02T08:39:37;4.80;;;2.85;;
36931;SDS011;22847;42.654;23.370;2023-05-02T08:42:06;4.45;;;2.63;;
36931;SDS011;22847;42.654;23.370;2023-05-02T08:44:32;3.90;;;2.63;;
36931;SDS011;22847;42.654;23.370;2023-05-02T08:46:57;5.63;;;2.75;;
36931;SDS011;22847;42.654;23.370;2023-05-02T08:49:24;4.10;;;2.80;;
36931;SDS011;22847;42.654;23.370;2023-05-02T08:51:51;4.18;;;2.63;;
36931;SDS011;22847;42.654;23.370;2023-05-02T08:54:19;3.80;;;2.28;;
36931;SDS011;22847;42.654;23.370;2023-05-02T08:56:45;2.90;;;2.38;;
36931;SDS011;22847;42.654;23.370;2023-05-02T08:59:11;4.88;;;2.92;;
36931;SDS011;22847;42.654;23.370;2023-05-02T09:01:37;4.10;;;2.78;;
36931;SDS011;22847;42.654;23.370;2023-05-02T09:04:08;7.30;;;2.75;;
36931;SDS011;22847;42.654;23.370;2023-05-02T09:06:33;7.95;;;2.50;;
36931;SDS011;22847;42.654;23.370;2023-05-02T09:09:00;6.35;;;2.47;;
36931;SDS011;22847;42.654;23.370;2023-05-02T09:11:25;5.03;;;2.60;;
36931;SDS011;22847;42.654;23.370;2023-05-02T09:13:51;8.60;;;2.88;;
36931;SDS011;22847;42.654;23.370;2023-05-02T09:21:22;3.85;;;2.38;;
36931;SDS011;22847;42.654;23.370;2023-05-02T09:23:56;6.15;;;2.13;;
36931;SDS011;22847;42.654;23.370;2023-05-02T09:26:23;2.72;;;2.20;;
36931;SDS011;22847;42.654;23.370;2023-05-02T09:28:55;7.22;;;2.10;;
36931;SDS011;22847;42.654;23.370;2023-05-02T09:31:22;5.25;;;2.47;;
36931;SDS011;22847;42.654;23.370;2023-05-02T09:33:52;5.20;;;2.05;;
36931;SDS011;22847;42.654;23.370;2023-05-02T09:36:19;6.80;;;2.65;;
36931;SDS011;22847;42.654;23.370;2023-05-02T09:38:46;5.65;;;2.22;;
36931;SDS011;22847;42.654;23.370;2023-05-02T09:41:13;3.10;;;2.58;;
36931;SDS011;22847;42.654;23.370;2023-05-02T09:43:39;4.07;;;2.20;;
36931;SDS011;22847;42.654;23.370;2023-05-02T09:46:05;6.85;;;2.45;;
36931;SDS011;22847;42.654;23.370;2023-05-02T09:48:35;5.30;;;2.25;;
36931;SDS011;22847;42.654;23.370;2023-05-02T09:51:16;5.25;;;2.30;;
36931;SDS011;22847;42.654;23.370;2023-05-02T09:53:43;5.28;;;2.30;;
36931;SDS011;22847;42.654;23.370;2023-05-02T09:56:09;5.63;;;2.70;;
36931;SDS011;22847;42.654;23.370;2023-05-02T09:58:35;3.20;;;2.60;;
36931;SDS011;22847;42.654;23.370;2023-05-02T10:01:00;4.65;;;2.30;;
36931;SDS011;22847;42.654;23.370;2023-05-02T10:03:26;10.57;;;2.70;;
36931;SDS011;22847;42.654;23.370;2023-05-02T10:05:53;7.05;;;2.70;;
36931;SDS011;22847;42.654;23.370;2023-05-02T10:08:20;4.18;;;1.80;;
36931;SDS011;22847;42.654;23.370;2023-05-02T10:10:52;8.27;;;2.15;;
36931;SDS011;22847;42.654;23.370;2023-05-02T10:13:20;5.65;;;2.00;;
36931;SDS011;22847;42.654;23.370;2023-05-02T10:15:48;5.38;;;2.40;;
36931;SDS011;22847;42.654;23.370;2023-05-02T10:18:26;4.90;;;2.13;;
36931;SDS011;22847;42.654;23.370;2023-05-02T10:21:19;3.42;;;2.13;;
36931;SDS011;22847;42.654;23.370;2023-05-02T10:23:51;4.70;;;2.33;;
36931;SDS011;22847;42.654;23.370;2023-05-02T10:26:17;3.72;;;2.30;;
36931;SDS011;22847;42.654;23.370;2023-05-02T10:28:45;5.65;;;2.42;;
36931;SDS011;22847;42.654;23.370;2023-05-02T10:31:11;3.42;;;1.98;;
36931;SDS011;22847;42.654;23.370;2023-05-02T10:33:38;4.00;;;2.35;;
36931;SDS011;22847;42.654;23.370;2023-05-02T10:36:04;6.25;;;2.15;;
36931;SDS011;22847;42.654;23.370;2023-05-02T10:38:32;3.85;;;2.40;;
36931;SDS011;22847;42.654;23.370;2023-05-02T10:40:59;3.75;;;1.63;;
36931;SDS011;22847;42.654;23.370;2023-05-02T10:43:33;4.18;;;1.90;;
36931;SDS011;22847;42.654;23.370;2023-05-02T10:46:00;4.13;;;1.90;;
36931;SDS011;22847;42.654;23.370;2023-05-02T10:48:27;4.47;;;1.88;;
36931;SDS011;22847;42.654;23.370;2023-05-02T10:50:59;2.58;;;2.13;;
36931;SDS011;22847;42.654;23.370;2023-05-02T10:53:27;4.78;;;1.92;;
36931;SDS011;22847;42.654;23.370;2023-05-02T10:56:15;4.03;;;1.90;;
36931;SDS011;22847;42.654;23.370;2023-05-02T10:58:43;3.78;;;1.92;;
36931;SDS011;22847;42.654;23.370;2023-05-02T11:04:27;7.22;;;2.03;;
36931;SDS011;22847;42.654;23.370;2023-05-02T11:11:47;2.78;;;2.00;;
36931;SDS011;22847;42.654;23.370;2023-05-02T11:24:48;5.13;;;2.40;;
36931;SDS011;22847;42.654;23.370;2023-05-02T11:30:08;7.57;;;2.63;;
36931;SDS011;22847;42.654;23.370;2023-05-02T11:35:16;6.88;;;2.10;;
36931;SDS011;22847;42.654;23.370;2023-05-02T11:37:53;6.10;;;1.88;;
36931;SDS011;22847;42.654;23.370;2023-05-02T11:40:20;3.92;;;2.15;;
36931;SDS011;22847;42.654;23.370;2023-05-02T11:42:46;4.10;;;2.30;;
36931;SDS011;22847;42.654;23.370;2023-05-02T11:45:11;4.18;;;1.92;;
36931;SDS011;22847;42.654;23.370;2023-05-02T11:47:37;6.05;;;1.95;;
36931;SDS011;22847;42.654;23.370;2023-05-02T11:50:05;2.33;;;1.90;;
36931;SDS011;22847;42.654;23.370;2023-05-02T11:52:39;7.45;;;2.22;;
36931;SDS011;22847;42.654;23.370;2023-05-02T11:55:07;5.13;;;2.22;;
36931;SDS011;22847;42.654;23.370;2023-05-02T11:57:36;6.88;;;2.33;;
36931;SDS011;22847;42.654;23.370;2023-05-02T12:00:03;5.68;;;2.35;;
36931;SDS011;22847;42.654;23.370;2023-05-02T12:02:39;4.00;;;1.88;;
36931;SDS011;22847;42.654;23.370;2023-05-02T12:05:06;2.78;;;2.55;;
36931;SDS011;22847;42.654;23.370;2023-05-02T12:07:37;5.22;;;2.60;;
36931;SDS011;22847;42.654;23.370;2023-05-02T12:10:04;9.25;;;2.35;;
36931;SDS011;22847;42.654;23.370;2023-05-02T12:12:30;3.30;;;2.15;;
36931;SDS011;22847;42.654;23.370;2023-05-02T12:14:56;4.82;;;2.40;;
36931;SDS011;22847;42.654;23.370;2023-05-02T12:17:21;1.92;;;1.65;;
36931;SDS011;22847;42.654;23.370;2023-05-02T12:19:48;4.18;;;2.22;;
36931;SDS011;22847;42.654;23.370;2023-05-02T12:22:14;5.97;;;2.40;;
36931;SDS011;22847;42.654;23.370;2023-05-02T12:24:41;4.38;;;2.15;;
36931;SDS011;22847;42.654;23.370;2023-05-02T12:29:37;4.85;;;2.13;;
36931;SDS011;22847;42.654;23.370;2023-05-02T12:32:04;3.53;;;1.90;;
36931;SDS011;22847;42.654;23.370;2023-05-02T12:34:33;4.97;;;2.20;;
36931;SDS011;22847;42.654;23.370;2023-05-02T12:37:01;4.63;;;2.03;;
36931;SDS011;22847;42.654;23.370;2023-05-02T12:40:00;5.65;;;2.17;;
36931;SDS011;22847;42.654;23.370;2023-05-02T12:42:20;4.18;;;2.10;;
36931;SDS011;22847;42.654;23.370;2023-05-02T12:44:48;6.05;;;2.25;;
36931;SDS011;22847;42.654;23.370;2023-05-02T12:47:16;10.88;;;2.22;;
36931;SDS011;22847;42.654;23.370;2023-05-02T12:54:43;6.30;;;2.10;;
36931;SDS011;22847;42.654;23.370;2023-05-02T12:57:09;3.17;;;2.00;;
36931;SDS011;22847;42.654;23.370;2023-05-02T12:59:35;5.75;;;2.45;;
36931;SDS011;22847;42.654;23.370;2023-05-02T13:02:00;3.47;;;2.30;;
36931;SDS011;22847;42.654;23.370;2023-05-02T13:04:35;4.47;;;1.73;;
36931;SDS011;22847;42.654;23.370;2023-05-02T13:07:02;5.95;;;2.55;;
36931;SDS011;22847;42.654;23.370;2023-05-02T13:09:28;3.38;;;2.00;;
36931;SDS011;22847;42.654;23.370;2023-05-02T13:11:53;5.93;;;2.00;;
36931;SDS011;22847;42.654;23.370;2023-05-02T13:14:19;4.72;;;2.20;;
36931;SDS011;22847;42.654;23.370;2023-05-02T13:16:44;6.55;;;1.70;;
36931;SDS011;22847;42.654;23.370;2023-05-02T13:19:10;4.13;;;2.10;;
36931;SDS011;22847;42.654;23.370;2023-05-02T13:21:35;5.43;;;2.40;;
36931;SDS011;22847;42.654;23.370;2023-05-02T13:24:00;4.25;;;1.83;;
36931;SDS011;22847;42.654;23.370;2023-05-02T13:26:28;7.20;;;1.90;;
36931;SDS011;22847;42.654;23.370;2023-05-02T13:28:53;6.72;;;1.80;;
36931;SDS011;22847;42.654;23.370;2023-05-02T13:31:20;4.43;;;1.67;;
36931;SDS011;22847;42.654;23.370;2023-05-02T13:33:45;6.65;;;1.70;;
36931;SDS011;22847;42.654;23.370;2023-05-02T13:36:11;2.25;;;1.83;;
36931;SDS011;22847;42.654;23.370;2023-05-02T13:38:36;2.83;;;1.80;;
36931;SDS011;22847;42.654;23.370;2023-05-02T13:41:02;5.95;;;1.73;;
36931;SDS011;22847;42.654;23.370;2023-05-02T13:43:27;5.28;;;1.88;;
36931;SDS011;22847;42.654;23.370;2023-05-02T13:45:52;5.13;;;2.35;;
36931;SDS011;22847;42.654;23.370;2023-05-02T13:48:18;5.65;;;1.75;;
36931;SDS011;22847;42.654;23.370;2023-05-02T13:50:43;5.07;;;1.90;;
36931;SDS011;22847;42.654;23.370;2023-05-02T13:53:09;2.50;;;1.90;;
36931;SDS011;22847;42.654;23.370;2023-05-02T13:55:35;3.58;;;1.80;;
36931;SDS011;22847;42.654;23.370;2023-05-02T13:58:00;4.07;;;1.70;;
36931;SDS011;22847;42.654;23.370;2023-05-02T14:00:26;3.65;;;1.67;;
36931;SDS011;22847;42.654;23.370;2023-05-02T14:02:53;7.03;;;2.25;;
36931;SDS011;22847;42.654;23.370;2023-05-02T14:05:18;7.78;;;2.28;;
36931;SDS011;22847;42.654;23.370;2023-05-02T14:07:44;4.20;;;1.90;;
36931;SDS011;22847;42.654;23.370;2023-05-02T14:10:10;4.55;;;1.80;;
36931;SDS011;22847;42.654;23.370;2023-05-02T14:12:35;2.85;;;1.67;;
36931;SDS011;22847;42.654;23.370;2023-05-02T14:15:01;1.85;;;1.50;;
36931;SDS011;22847;42.654;23.370;2023-05-02T14:17:26;7.65;;;1.98;;
36931;SDS011;22847;42.654;23.370;2023-05-02T14:19:52;3.17;;;1.80;;
36931;SDS011;22847;42.654;23.370;2023-05-02T14:22:17;4.22;;;1.50;;
36931;SDS011;22847;42.654;23.370;2023-05-02T14:24:43;5.38;;;1.70;;
36931;SDS011;22847;42.654;23.370;2023-05-02T14:27:08;6.38;;;1.98;;
36931;SDS011;22847;42.654;23.370;2023-05-02T14:29:42;2.33;;;1.73;;
36931;SDS011;22847;42.654;23.370;2023-05-02T14:32:11;2.10;;;1.58;;
36931;SDS011;22847;42.654;23.370;2023-05-02T14:34:36;5.93;;;2.10;;
36931;SDS011;22847;42.654;23.370;2023-05-02T14:37:02;7.00;;;1.58;;
36931;SDS011;22847;42.654;23.370;2023-05-02T14:39:27;7.00;;;2.97;;
36931;SDS011;22847;42.654;23.370;2023-05-02T14:41:53;4.28;;;2.30;;
36931;SDS011;22847;42.654;23.370;2023-05-02T14:44:18;4.07;;;1.48;;
36931;SDS011;22847;42.654;23.370;2023-05-02T14:46:43;3.08;;;1.38;;
36931;SDS011;22847;42.654;23.370;2023-05-02T14:49:09;2.70;;;1.90;;
36931;SDS011;22847;42.654;23.370;2023-05-02T14:51:37;6.03;;;1.75;;
36931;SDS011;22847;42.654;23.370;2023-05-02T14:54:04;4.20;;;1.63;;
36931;SDS011;22847;42.654;23.370;2023-05-02T14:56:30;7.43;;;1.77;;
36931;SDS011;22847;42.654;23.370;2023-05-02T14:58:56;2.60;;;1.80;;
36931;SDS011;22847;42.654;23.370;2023-05-02T15:01:22;4.57;;;1.98;;
36931;SDS011;22847;42.654;23.370;2023-05-02T15:03:47;7.13;;;1.73;;
36931;SDS011;22847;42.654;23.370;2023-05-02T15:06:14;2.83;;;1.77;;
36931;SDS011;22847;42.654;23.370;2023-05-02T15:08:40;2.35;;;1.50;;
36931;SDS011;22847;42.654;23.370;2023-05-02T15:11:07;2.92;;;1.58;;
36931;SDS011;22847;42.654;23.370;2023-05-02T15:13:36;5.03;;;1.75;;
36931;SDS011;22847;42.654;23.370;2023-05-02T15:16:02;5.60;;;1.83;;
36931;SDS011;22847;42.654;23.370;2023-05-02T15:18:30;3.05;;;1.70;;
36931;SDS011;22847;42.654;23.370;2023-05-02T15:20:55;7.95;;;1.75;;
36931;SDS011;22847;42.654;23.370;2023-05-02T15:23:21;5.13;;;1.83;;
36931;SDS011;22847;42.654;23.370;2023-05-02T15:25:46;2.35;;;1.67;;
36931;SDS011;22847;42.654;23.370;2023-05-02T15:28:12;3.03;;;1.48;;
36931;SDS011;22847;42.654;23.370;2023-05-02T15:30:37;8.43;;;1.95;;
36931;SDS011;22847;42.654;23.370;2023-05-02T15:33:03;3.08;;;1.55;;
36931;SDS011;22847;42.654;23.370;2023-05-02T15:35:29;4.25;;;1.70;;
36931;SDS011;22847;42.654;23.370;2023-05-02T15:37:55;2.88;;;1.70;;
36931;SDS011;22847;42.654;23.370;2023-05-02T15:40:20;6.35;;;1.50;;
36931;SDS011;22847;42.654;23.370;2023-05-02T15:42:46;2.50;;;1.50;;